Time;durP1;ratioP1;P1;durP2;ratioP2;P2;SDS_P1;SDS_P2;PMS_P1;PMS_P2;Temp;Humidity;BMP_temperature;BMP_pressure;BME280_temperature;BME280_humidity;BME280_pressure;Samples;Min_cycle;Max_cycle;Signal;HPM_P1;HPM_P2
2023/08/12 00:04:29;;;;;;;7.25;6.28;;;13.20;99.90;;;;;;10575474;28;20248;-85
2023/08/12 00:09:32;;;;;;;7.40;6.40;;;13.00;99.90;;;;;;10589494;27;20252;-85
2023/08/12 00:14:35;;;;;;;10.95;6.65;;;13.00;99.90;;;;;;10562072;27;20236;-85
2023/08/12 00:19:38;;;;;;;5.28;4.78;;;12.90;99.90;;;;;;10599761;27;20292;-85
2023/08/12 00:24:41;;;;;;;7.57;6.47;;;13.00;99.90;;;;;;10609808;27;20248;-85
2023/08/12 00:29:43;;;;;;;6.35;5.10;;;13.00;99.90;;;;;;10575273;27;20254;-84
2023/08/12 00:34:46;;;;;;;4.85;4.35;;;13.00;99.90;;;;;;10573708;27;20232;-85
2023/08/12 00:39:48;;;;;;;8.20;5.65;;;13.10;99.90;;;;;;10558075;28;20600;-85
2023/08/12 00:44:51;;;;;;;6.55;5.43;;;13.00;99.90;;;;;;10568969;27;20284;-84
2023/08/12 00:49:57;;;;;;;9.43;6.18;;;12.90;99.90;;;;;;10576550;27;20683;-85
2023/08/12 00:55:00;;;;;;;5.30;3.67;;;12.80;99.90;;;;;;10591690;27;20627;-85
2023/08/12 01:00:03;;;;;;;9.65;5.38;;;12.90;99.90;;;;;;10594207;27;20228;-84
2023/08/12 01:05:06;;;;;;;7.35;5.03;;;12.90;99.90;;;;;;10582349;27;20605;-85
2023/08/12 01:10:14;;;;;;;9.85;5.50;;;12.90;99.90;;;;;;10564193;27;20258;-84
2023/08/12 01:15:26;;;;;;;5.10;4.45;;;12.90;99.90;;;;;;10561832;27;20313;-84
2023/08/12 01:20:30;;;;;;;11.63;6.28;;;12.80;99.90;;;;;;10611688;27;20228;-84
2023/08/12 01:25:33;;;;;;;6.70;5.10;;;12.70;99.90;;;;;;10565142;28;20252;-85
2023/08/12 01:31:05;;;;;;;7.32;5.65;;;12.70;99.90;;;;;;10578384;27;20319;-84
2023/08/12 01:36:19;;;;;;;7.45;6.75;;;12.80;99.90;;;;;;10551581;28;20290;-84
2023/08/12 01:41:23;;;;;;;7.53;5.03;;;12.60;99.90;;;;;;10570165;28;20309;-85
2023/08/12 01:46:26;;;;;;;5.95;3.85;;;12.60;99.90;;;;;;10603364;27;20281;-84
2023/08/12 01:51:29;;;;;;;6.25;5.65;;;12.70;99.90;;;;;;10566651;27;20240;-85
2023/08/12 01:56:32;;;;;;;9.13;6.05;;;12.80;99.90;;;;;;10591523;27;20284;-85
2023/08/12 02:01:34;;;;;;;7.55;6.30;;;12.70;99.90;;;;;;10573787;27;20239;-84
2023/08/12 02:06:37;;;;;;;6.72;4.90;;;12.70;99.90;;;;;;10615834;27;20678;-84
2023/08/12 02:11:39;;;;;;;7.07;6.00;;;12.70;99.90;;;;;;10597740;27;20307;-85
2023/08/12 02:16:42;;;;;;;8.43;5.82;;;12.80;99.90;;;;;;10620459;27;20343;-85
2023/08/12 02:21:44;;;;;;;6.18;5.60;;;12.70;99.90;;;;;;10619682;27;20248;-85
2023/08/12 02:26:47;;;;;;;5.85;5.35;;;12.60;99.90;;;;;;10584874;27;20269;-83
2023/08/12 02:31:49;;;;;;;7.85;5.60;;;12.70;99.90;;;;;;10581273;27;20628;-82
2023/08/12 02:36:55;;;;;;;9.07;7.00;;;12.60;99.90;;;;;;10622224;27;20239;-82
2023/08/12 02:41:57;;;;;;;6.45;5.82;;;12.50;99.90;;;;;;10603808;27;20259;-83
2023/08/12 02:47:00;;;;;;;7.93;7.13;;;12.50;99.90;;;;;;10564819;28;20221;-83
2023/08/12 02:52:03;;;;;;;6.47;5.75;;;12.40;99.90;;;;;;10602996;27;20240;-83
2023/08/12 02:57:05;;;;;;;8.70;6.10;;;12.40;99.90;;;;;;10573272;27;20201;-83
2023/08/12 03:02:08;;;;;;;7.13;6.07;;;12.40;99.90;;;;;;10538662;27;20253;-83
2023/08/12 03:07:11;;;;;;;8.13;6.50;;;12.30;99.90;;;;;;10571630;27;20265;-82
2023/08/12 03:12:14;;;;;;;6.50;5.53;;;12.30;99.90;;;;;;10606240;27;20294;-83
2023/08/12 03:17:17;;;;;;;7.22;6.28;;;12.30;99.90;;;;;;10585196;27;20255;-82
2023/08/12 03:22:20;;;;;;;7.03;6.32;;;12.40;99.90;;;;;;10550774;28;20260;-83
2023/08/12 03:27:23;;;;;;;5.57;5.07;;;12.30;99.90;;;;;;10571685;27;20454;-83
2023/08/12 03:32:26;;;;;;;5.78;5.13;;;12.40;99.90;;;;;;10573455;28;20384;-82
2023/08/12 03:37:30;;;;;;;8.18;7.03;;;12.40;99.90;;;;;;10564417;27;20297;-84
2023/08/12 03:42:32;;;;;;;9.90;7.75;;;12.30;99.90;;;;;;10583910;27;20684;-84
2023/08/12 03:47:37;;;;;;;7.05;6.45;;;12.30;99.90;;;;;;10601988;27;20261;-84
2023/08/12 03:52:41;;;;;;;10.40;7.95;;;12.40;99.90;;;;;;10573697;27;20236;-83
2023/08/12 03:57:44;;;;;;;6.13;5.53;;;12.30;99.90;;;;;;10556647;27;20751;-84
2023/08/12 04:02:46;;;;;;;8.07;6.65;;;12.40;99.90;;;;;;10560444;28;20261;-83
2023/08/12 04:07:49;;;;;;;9.98;7.00;;;12.40;99.90;;;;;;10561578;27;20326;-83
2023/08/12 04:12:51;;;;;;;6.47;5.50;;;12.60;99.90;;;;;;10586729;27;20236;-84
2023/08/12 04:17:54;;;;;;;6.72;6.10;;;12.60;99.90;;;;;;10610452;27;20236;-84
2023/08/12 04:22:57;;;;;;;5.72;4.45;;;12.60;99.90;;;;;;10569495;27;20689;-84
2023/08/12 04:28:00;;;;;;;7.85;6.97;;;12.70;99.90;;;;;;10569244;28;20667;-83
2023/08/12 04:33:04;;;;;;;8.23;6.25;;;12.70;99.90;;;;;;10588345;27;20236;-84
2023/08/12 04:38:08;;;;;;;4.93;4.45;;;12.60;99.90;;;;;;10575580;27;20244;-84
2023/08/12 04:43:13;;;;;;;10.65;6.82;;;12.80;99.90;;;;;;10572760;27;20299;-84
2023/08/12 04:48:16;;;;;;;8.52;7.72;;;13.00;99.90;;;;;;10532616;27;20241;-84
2023/08/12 04:53:19;;;;;;;9.13;6.25;;;13.10;99.90;;;;;;10569278;28;20285;-84
2023/08/12 04:58:21;;;;;;;7.68;6.65;;;13.20;99.90;;;;;;10556954;28;20630;-86
2023/08/12 05:03:25;;;;;;;4.55;4.13;;;13.40;99.90;;;;;;10556075;28;20260;-84
2023/08/12 05:08:28;;;;;;;5.13;4.60;;;13.50;99.90;;;;;;10575647;28;20834;-84
2023/08/12 05:13:31;;;;;;;9.73;5.35;;;13.70;99.90;;;;;;10590652;27;20208;-84
2023/08/12 05:18:35;;;;;;;9.05;6.00;;;13.90;99.90;;;;;;10555157;28;20282;-84
2023/08/12 05:23:37;;;;;;;6.93;5.63;;;14.10;99.90;;;;;;10539127;28;20288;-84
2023/08/12 05:28:40;;;;;;;8.27;5.40;;;14.40;99.90;;;;;;10556420;28;20343;-84
2023/08/12 05:33:43;;;;;;;12.45;9.02;;;14.60;99.90;;;;;;10574893;28;20236;-84
2023/08/12 05:38:45;;;;;;;6.15;5.45;;;14.80;99.90;;;;;;10608361;27;20242;-84
2023/08/12 05:43:48;;;;;;;14.05;7.53;;;15.20;99.90;;;;;;10588097;27;20259;-84
2023/08/12 05:48:51;;;;;;;4.28;3.45;;;15.50;99.90;;;;;;10615797;27;20289;-84
2023/08/12 05:53:53;;;;;;;5.97;5.13;;;15.80;99.90;;;;;;10574544;28;20704;-83
2023/08/12 05:58:56;;;;;;;6.05;5.28;;;16.20;99.90;;;;;;10587753;27;20227;-84
2023/08/12 06:03:58;;;;;;;5.90;5.30;;;16.50;99.90;;;;;;10565216;28;20260;-83
2023/08/12 06:09:01;;;;;;;7.22;5.60;;;16.80;99.90;;;;;;10574102;28;20693;-84
2023/08/12 06:14:05;;;;;;;6.15;5.25;;;17.10;99.90;;;;;;10562657;28;20230;-83
2023/08/12 06:19:07;;;;;;;5.40;4.90;;;17.40;99.90;;;;;;10547588;28;20237;-83
2023/08/12 06:24:11;;;;;;;6.18;5.03;;;17.70;99.90;;;;;;10570617;28;20716;-84
2023/08/12 06:29:13;;;;;;;8.02;5.55;;;18.10;99.90;;;;;;10558618;28;20314;-84
2023/08/12 06:34:16;;;;;;;8.38;5.63;;;18.30;99.90;;;;;;10532184;28;20294;-84
2023/08/12 06:39:18;;;;;;;9.07;5.10;;;18.50;99.90;;;;;;10550755;28;20293;-84
2023/08/12 06:44:21;;;;;;;5.25;2.92;;;18.80;99.90;;;;;;10570227;28;20252;-84
2023/08/12 06:49:23;;;;;;;4.00;2.65;;;19.10;99.90;;;;;;10554153;28;20232;-84
2023/08/12 06:54:26;;;;;;;3.67;2.80;;;19.30;99.90;;;;;;10572636;28;20577;-84
2023/08/12 06:59:28;;;;;;;6.28;4.82;;;19.50;99.90;;;;;;10553187;28;20295;-83
2023/08/12 07:04:31;;;;;;;3.22;2.50;;;19.80;99.90;;;;;;10571683;28;20305;-83
2023/08/12 07:09:34;;;;;;;14.43;3.08;;;20.00;99.90;;;;;;10576043;28;20260;-83
2023/08/12 07:14:37;;;;;;;3.60;3.28;;;20.10;97.80;;;;;;10580697;28;20289;-83
2023/08/12 07:19:41;;;;;;;7.97;5.30;;;20.30;96.60;;;;;;10549988;28;20311;-83
2023/08/12 07:24:44;;;;;;;7.85;4.85;;;20.50;95.40;;;;;;10543956;28;20224;-83
2023/08/12 07:29:47;;;;;;;8.15;5.38;;;20.80;94.60;;;;;;10563974;28;20224;-86
2023/08/12 07:34:49;;;;;;;9.63;4.45;;;21.00;94.70;;;;;;10568145;28;20794;-84
2023/08/12 07:39:52;;;;;;;3.53;2.85;;;21.20;95.20;;;;;;10576617;28;20671;-83
2023/08/12 07:44:54;;;;;;;7.03;5.20;;;21.30;92.40;;;;;;10577389;28;20649;-84
2023/08/12 07:49:57;;;;;;;10.35;4.72;;;21.50;93.20;;;;;;10561394;28;20669;-83
2023/08/12 07:54:59;;;;;;;2.58;2.38;;;21.50;91.80;;;;;;10561782;28;20262;-82
2023/08/12 08:00:02;;;;;;;2.75;2.55;;;21.50;91.80;;;;;;10578411;28;20620;-83
2023/08/12 08:05:06;;;;;;;4.68;4.13;;;21.50;91.80;;;;;;10575563;28;20253;-84
2023/08/12 08:10:10;;;;;;;5.45;3.58;;;21.60;92.60;;;;;;10564037;28;20719;-84
2023/08/12 08:15:13;;;;;;;7.65;5.38;;;21.80;92.00;;;;;;10541485;28;20225;-83
2023/08/12 08:20:15;;;;;;;9.13;4.32;;;21.80;92.10;;;;;;10556313;28;20268;-83
2023/08/12 08:25:18;;;;;;;5.75;4.93;;;22.00;91.90;;;;;;10561258;28;20286;-83
2023/08/12 08:30:22;;;;;;;8.93;4.32;;;22.20;91.50;;;;;;10544061;28;20237;-83
2023/08/12 08:35:25;;;;;;;7.80;4.20;;;22.30;88.40;;;;;;10536709;28;20228;-82
2023/08/12 08:40:28;;;;;;;5.38;4.15;;;22.60;89.50;;;;;;9503358;27;10000711;-83
2023/08/12 08:45:33;;;;;;;6.40;3.58;;;22.80;89.90;;;;;;10541014;28;20885;-83
2023/08/12 08:50:36;;;;;;;4.75;4.00;;;22.90;84.90;;;;;;10537263;28;20805;-82
2023/08/12 08:55:42;;;;;;;7.05;3.25;;;22.80;85.00;;;;;;10566201;28;20271;-83
2023/08/12 09:00:45;;;;;;;5.28;4.18;;;22.90;85.30;;;;;;10562089;28;20225;-86
2023/08/12 09:05:48;;;;;;;4.40;4.00;;;23.00;78.00;;;;;;10541797;28;20245;-85
2023/08/12 09:10:50;;;;;;;9.73;3.67;;;23.20;80.50;;;;;;10559011;28;20670;-85
2023/08/12 09:15:53;;;;;;;4.43;4.03;;;23.30;77.60;;;;;;10537028;28;20646;-88
2023/08/12 09:20:56;;;;;;;5.55;3.75;;;23.30;79.00;;;;;;10528381;28;20258;-87
2023/08/12 09:25:58;;;;;;;6.32;4.38;;;23.30;74.80;;;;;;10527839;28;20682;-88
2023/08/12 09:31:01;;;;;;;9.10;4.45;;;23.30;74.20;;;;;;10526776;28;20680;-87
2023/08/12 09:36:04;;;;;;;5.38;3.58;;;23.40;74.50;;;;;;10528652;28;20282;-88
2023/08/12 09:41:10;;;;;;;4.60;3.85;;;23.30;73.00;;;;;;10555969;28;20291;-87
2023/08/12 09:46:15;;;;;;;4.47;4.07;;;23.20;72.40;;;;;;10551823;28;20301;-87
2023/08/12 09:51:20;;;;;;;4.15;3.55;;;23.30;72.80;;;;;;10569066;28;20266;-87
2023/08/12 09:56:23;;;;;;;6.47;3.47;;;23.60;76.10;;;;;;10569344;28;20286;-89
2023/08/12 10:01:27;;;;;;;4.90;4.22;;;23.60;73.40;;;;;;10569694;28;20232;-88
2023/08/12 10:06:30;;;;;;;4.43;3.92;;;23.60;71.70;;;;;;10568325;28;20261;-87
2023/08/12 10:11:32;;;;;;;4.03;3.33;;;23.60;70.40;;;;;;10569826;28;20260;-87
2023/08/12 10:16:36;;;;;;;3.85;3.45;;;23.80;69.50;;;;;;10569887;28;20228;-88
2023/08/12 10:21:39;;;;;;;4.72;4.20;;;24.00;69.10;;;;;;10568959;28;20269;-87
2023/08/12 10:26:42;;;;;;;5.63;4.13;;;24.00;64.30;;;;;;10565305;28;20282;-87
2023/08/12 10:31:46;;;;;;;4.43;4.03;;;24.00;65.90;;;;;;10564368;28;20559;-82
2023/08/12 10:42:40;;;;;;;3.35;3.15;;;24.20;64.60;;;;;;10071308;23;10002168;-86
2023/08/12 10:47:48;;;;;;;4.72;3.67;;;24.60;62.30;;;;;;10060462;29;20269;-85
2023/08/12 10:52:52;;;;;;;4.18;3.67;;;24.90;62.20;;;;;;10060628;29;20290;-86
2023/08/12 10:57:58;;;;;;;8.02;4.45;;;25.30;62.90;;;;;;10053995;29;20257;-84
2023/08/12 11:03:06;;;;;;;8.80;4.10;;;25.40;57.50;;;;;;10068825;29;20304;-85
2023/08/12 11:08:13;;;;;;;7.80;3.22;;;25.60;57.90;;;;;;10087291;29;20831;-85
2023/08/12 11:13:16;;;;;;;3.92;3.38;;;25.60;57.30;;;;;;10069107;29;20241;-85
2023/08/12 11:18:20;;;;;;;3.10;2.40;;;25.60;53.60;;;;;;10032397;29;20944;-85
2023/08/12 11:23:23;;;;;;;3.50;2.83;;;25.80;49.90;;;;;;10038819;29;20230;-86
2023/08/12 11:28:26;;;;;;;4.43;3.90;;;25.90;52.00;;;;;;10032842;29;20685;-84
2023/08/12 11:33:30;;;;;;;4.50;3.42;;;26.00;50.00;;;;;;10036645;29;20266;-86
2023/08/12 11:38:33;;;;;;;3.75;3.45;;;25.80;48.60;;;;;;10037839;29;20246;-86
2023/08/12 11:43:35;;;;;;;3.65;3.22;;;25.60;50.60;;;;;;10055894;29;20269;-86
2023/08/12 11:48:38;;;;;;;3.13;2.80;;;25.70;50.10;;;;;;10021129;29;20234;-86
2023/08/12 11:53:40;;;;;;;4.35;3.03;;;25.70;51.80;;;;;;10053436;29;20253;-85
2023/08/12 11:58:43;;;;;;;3.95;3.60;;;25.60;50.70;;;;;;10055388;29;20310;-86
2023/08/12 12:03:55;;;;;;;5.65;3.13;;;25.60;51.80;;;;;;10055491;29;20282;-84
2023/08/12 12:09:05;;;;;;;3.42;3.13;;;25.50;52.00;;;;;;10053969;29;20302;-83
2023/08/12 12:14:09;;;;;;;3.25;1.98;;;25.60;49.20;;;;;;10042120;29;20728;-84
2023/08/12 12:19:17;;;;;;;4.00;3.08;;;25.20;44.80;;;;;;10052290;29;20241;-84
2023/08/12 12:24:20;;;;;;;3.15;2.83;;;25.10;47.40;;;;;;10019059;29;20314;-84
2023/08/12 12:29:23;;;;;;;22.83;4.07;;;25.20;48.90;;;;;;10024992;29;20305;-84
2023/08/12 12:34:26;;;;;;;6.43;4.03;;;25.40;48.20;;;;;;10053449;29;20663;-85
2023/08/12 12:39:28;;;;;;;5.43;3.42;;;25.50;50.70;;;;;;10052676;29;20285;-85
2023/08/12 12:44:31;;;;;;;4.13;3.55;;;25.70;50.20;;;;;;10051760;29;20884;-84
2023/08/12 12:49:34;;;;;;;8.07;3.60;;;25.80;50.70;;;;;;10050912;29;20282;-85
2023/08/12 12:54:36;;;;;;;5.28;3.20;;;25.90;47.00;;;;;;10037217;29;20299;-85
2023/08/12 12:59:39;;;;;;;9.45;5.05;;;25.90;46.10;;;;;;10047602;29;20245;-85
2023/08/12 13:04:42;;;;;;;3.88;3.50;;;25.90;47.20;;;;;;10033845;29;20726;-87
2023/08/12 13:09:45;;;;;;;7.60;3.53;;;25.80;48.90;;;;;;10030822;29;20298;-87
2023/08/12 13:14:47;;;;;;;3.30;2.60;;;25.60;50.70;;;;;;10030170;29;20709;-88
2023/08/12 13:19:49;;;;;;;4.10;3.70;;;25.80;51.80;;;;;;10026394;29;20780;-87
2023/08/12 13:24:52;;;;;;;2.95;2.75;;;26.00;47.80;;;;;;10028680;29;20799;-87
2023/08/12 13:29:55;;;;;;;4.82;3.05;;;26.40;44.70;;;;;;10044158;29;20715;-87
2023/08/12 13:34:58;;;;;;;4.93;2.78;;;26.10;46.30;;;;;;10024033;29;20317;-87
2023/08/12 13:40:00;;;;;;;3.33;3.03;;;26.40;40.90;;;;;;10026965;29;20604;-87
2023/08/12 13:45:04;;;;;;;5.70;2.83;;;26.40;44.40;;;;;;10012791;29;20257;-86
2023/08/12 13:50:07;;;;;;;3.22;2.92;;;26.50;40.50;;;;;;10029388;29;20654;-86
2023/08/12 13:55:10;;;;;;;4.25;2.30;;;26.80;40.60;;;;;;10022882;29;20246;-86
2023/08/12 14:00:14;;;;;;;3.58;3.15;;;26.80;39.00;;;;;;10011509;29;20241;-86
2023/08/12 14:05:18;;;;;;;2.60;2.40;;;26.50;40.10;;;;;;10019908;29;20257;-87
2023/08/12 14:10:21;;;;;;;3.72;2.47;;;26.30;43.10;;;;;;10039071;29;20245;-87
2023/08/12 14:15:23;;;;;;;4.82;2.88;;;26.10;44.40;;;;;;10016271;29;20302;-88
2023/08/12 14:20:26;;;;;;;2.75;2.25;;;25.90;45.90;;;;;;10028988;29;20294;-88
2023/08/12 14:25:29;;;;;;;2.15;1.95;;;25.80;47.80;;;;;;10025941;29;20679;-87
2023/08/12 14:30:32;;;;;;;3.25;2.88;;;25.70;48.70;;;;;;10025753;29;20238;-88
2023/08/12 14:35:35;;;;;;;3.22;2.85;;;25.80;47.10;;;;;;10019684;29;20293;-88
2023/08/12 14:40:38;;;;;;;3.47;2.85;;;25.90;48.30;;;;;;10042569;29;20290;-89
2023/08/12 14:45:40;;;;;;;3.97;2.58;;;26.10;50.00;;;;;;10017224;29;20265;-87
2023/08/12 14:50:43;;;;;;;3.53;3.05;;;26.40;46.60;;;;;;10017284;29;20640;-87
2023/08/12 14:55:46;;;;;;;4.05;2.97;;;26.50;46.50;;;;;;10042927;29;20242;-87
2023/08/12 15:00:50;;;;;;;4.82;2.58;;;26.70;48.50;;;;;;10041196;29;20245;-88
2023/08/12 15:06:01;;;;;;;6.15;3.42;;;26.70;45.50;;;;;;10044496;29;20299;-87
2023/08/12 15:11:03;;;;;;;4.57;2.67;;;26.60;45.00;;;;;;10038829;29;20242;-89
2023/08/12 15:16:06;;;;;;;6.57;3.00;;;26.40;44.90;;;;;;10022928;29;20287;-89
2023/08/12 15:21:08;;;;;;;3.10;2.83;;;26.20;45.90;;;;;;10034747;29;20258;-89
2023/08/12 15:26:11;;;;;;;3.30;2.58;;;25.90;47.30;;;;;;10036748;29;20265;-88
2023/08/12 15:31:14;;;;;;;8.23;4.25;;;25.70;47.80;;;;;;10026873;29;20291;-88
2023/08/12 15:36:17;;;;;;;3.90;3.50;;;25.70;49.00;;;;;;10023577;29;20294;-86
2023/08/12 15:41:21;;;;;;;2.92;2.67;;;25.70;50.30;;;;;;10040519;29;20325;-88
2023/08/12 15:46:24;;;;;;;3.58;2.92;;;25.60;50.30;;;;;;10047291;29;20253;-88
2023/08/12 15:51:27;;;;;;;5.00;3.08;;;25.40;50.50;;;;;;10045293;29;20651;-88
2023/08/12 15:56:30;;;;;;;2.78;2.58;;;25.30;51.50;;;;;;10039094;29;20262;-88
2023/08/12 16:01:36;;;;;;;4.45;3.15;;;25.10;52.80;;;;;;10043624;29;20722;-88
2023/08/12 16:06:38;;;;;;;3.00;2.78;;;25.10;54.00;;;;;;10042069;29;20670;-90
2023/08/12 16:11:41;;;;;;;4.50;2.95;;;25.10;56.00;;;;;;10032243;29;20241;-87
2023/08/12 16:16:43;;;;;;;4.75;3.03;;;25.10;55.30;;;;;;10031655;29;20273;-86
2023/08/12 16:21:46;;;;;;;3.25;2.60;;;25.00;55.50;;;;;;10044496;29;20341;-87
2023/08/12 16:26:49;;;;;;;4.45;2.50;;;25.00;55.70;;;;;;10050505;29;20714;-87
2023/08/12 16:31:51;;;;;;;8.13;4.00;;;24.90;57.40;;;;;;10052601;29;20644;-87
2023/08/12 16:36:54;;;;;;;7.50;4.22;;;24.90;59.90;;;;;;10052130;29;20634;-87
2023/08/12 16:42:17;;;;;;;4.05;3.40;;;24.80;60.30;;;;;;10051213;29;20257;-87
2023/08/12 16:47:24;;;;;;;2.72;2.53;;;24.70;64.60;;;;;;10033605;29;20321;-87
2023/08/12 16:52:27;;;;;;;3.08;2.78;;;24.70;66.70;;;;;;10038908;29;20278;-87
2023/08/12 16:57:30;;;;;;;4.88;3.25;;;24.60;64.50;;;;;;10038739;29;20249;-87
2023/08/12 17:02:32;;;;;;;3.83;2.88;;;24.50;69.00;;;;;;10044974;29;20642;-88
2023/08/12 17:07:35;;;;;;;11.57;3.95;;;24.40;67.50;;;;;;10036995;29;20258;-87
2023/08/12 17:12:37;;;;;;;11.60;4.05;;;24.30;70.50;;;;;;10043742;29;20230;-88
2023/08/12 17:17:40;;;;;;;13.07;4.63;;;24.30;76.60;;;;;;10031378;29;20241;-87
2023/08/12 17:22:43;;;;;;;10.18;4.45;;;24.10;77.40;;;;;;10040611;29;20245;-87
2023/08/12 17:27:46;;;;;;;17.48;5.95;;;24.00;82.90;;;;;;10038503;29;20257;-87
2023/08/12 17:32:49;;;;;;;11.63;5.53;;;23.80;83.10;;;;;;10036768;29;20245;-87
2023/08/12 17:37:52;;;;;;;7.20;4.07;;;23.70;82.00;;;;;;10027002;29;20248;-87
2023/08/12 17:42:54;;;;;;;4.53;3.55;;;23.60;84.40;;;;;;10050725;29;20265;-87
2023/08/12 17:47:59;;;;;;;3.80;3.15;;;23.40;79.00;;;;;;10048156;29;20709;-87
2023/08/12 17:53:02;;;;;;;8.48;3.90;;;23.30;81.50;;;;;;10034622;29;20267;-87
2023/08/12 17:58:04;;;;;;;4.13;3.72;;;23.20;81.50;;;;;;10043565;29;20241;-87
2023/08/12 18:03:07;;;;;;;4.15;3.00;;;23.10;83.40;;;;;;10034017;29;20310;-87
2023/08/12 18:08:20;;;;;;;4.78;3.72;;;23.00;84.30;;;;;;10042892;29;20261;-88
2023/08/12 18:13:22;;;;;;;5.38;3.60;;;23.00;87.30;;;;;;10023148;29;20238;-86
2023/08/12 18:18:25;;;;;;;12.00;5.30;;;22.90;91.20;;;;;;10023241;29;20250;-87
2023/08/12 18:23:28;;;;;;;9.60;4.68;;;22.90;93.30;;;;;;10033483;29;20684;-87
2023/08/12 18:28:31;;;;;;;13.63;5.82;;;22.80;95.20;;;;;;10033741;29;20725;-86
2023/08/12 18:33:34;;;;;;;11.90;4.65;;;22.70;96.30;;;;;;10041798;29;20237;-88
2023/08/12 18:38:36;;;;;;;12.60;5.05;;;22.60;96.50;;;;;;10041381;29;20262;-87
2023/08/12 18:43:39;;;;;;;12.07;5.32;;;22.50;96.30;;;;;;10040517;29;20314;-88
2023/08/12 18:48:42;;;;;;;10.43;6.57;;;22.50;97.90;;;;;;10011673;29;20325;-87
2023/08/12 18:53:44;;;;;;;14.23;3.53;;;22.40;96.70;;;;;;10020322;29;20234;-88
2023/08/12 18:58:46;;;;;;;5.28;4.30;;;22.30;95.90;;;;;;10041206;29;20274;-88
2023/08/12 19:03:49;;;;;;;10.70;6.88;;;22.30;95.50;;;;;;10040210;29;20293;-87
2023/08/12 19:08:52;;;;;;;41.00;24.85;;;22.20;96.70;;;;;;10055922;29;20321;-87
2023/08/12 19:13:54;;;;;;;21.73;15.52;;;22.10;97.00;;;;;;10043040;29;20241;-88
2023/08/12 19:18:57;;;;;;;17.38;12.48;;;22.00;97.50;;;;;;10030907;29;20242;-88
2023/08/12 19:23:59;;;;;;;3.88;3.58;;;22.00;97.00;;;;;;10034831;29;20916;-88
2023/08/12 19:29:02;;;;;;;18.83;13.05;;;21.90;96.30;;;;;;10035246;29;20262;-87
2023/08/12 19:34:05;;;;;;;30.48;21.40;;;21.90;96.40;;;;;;10030377;29;20218;-88
2023/08/12 19:39:07;;;;;;;25.65;17.35;;;21.90;95.80;;;;;;10040596;29;20237;-87
2023/08/12 19:44:10;;;;;;;14.88;10.18;;;21.80;95.90;;;;;;10021743;29;20266;-88
2023/08/12 19:49:13;;;;;;;5.10;4.63;;;21.80;95.80;;;;;;10044970;29;20317;-87
2023/08/12 19:54:15;;;;;;;5.95;4.45;;;21.80;95.20;;;;;;10039268;29;20643;-88
2023/08/12 19:59:18;;;;;;;10.68;6.53;;;21.80;95.40;;;;;;10038623;29;20246;-88
2023/08/12 20:04:21;;;;;;;9.32;4.82;;;21.80;94.80;;;;;;10021122;29;20311;-88
2023/08/12 20:09:26;;;;;;;10.98;4.78;;;21.80;94.00;;;;;;10053850;29;20690;-88
2023/08/12 20:14:28;;;;;;;6.55;4.25;;;21.80;95.30;;;;;;10028484;29;20229;-87
2023/08/12 20:19:34;;;;;;;11.35;8.27;;;21.80;95.40;;;;;;10030184;29;20660;-87
2023/08/12 20:24:36;;;;;;;6.68;4.53;;;21.70;94.60;;;;;;10049420;29;20808;-88
2023/08/12 20:29:39;;;;;;;6.40;4.40;;;21.70;94.50;;;;;;10025011;29;20261;-87
2023/08/12 20:34:42;;;;;;;6.15;5.65;;;21.70;94.80;;;;;;10037811;29;20643;-86
2023/08/12 20:39:45;;;;;;;6.10;5.57;;;21.70;95.10;;;;;;10042149;29;20376;-86
2023/08/12 20:44:47;;;;;;;10.43;7.72;;;21.70;95.00;;;;;;10027705;29;20681;-87
2023/08/12 20:49:50;;;;;;;10.52;7.93;;;21.60;95.20;;;;;;10039132;29;20256;-88
2023/08/12 20:54:52;;;;;;;11.07;7.70;;;21.60;94.90;;;;;;10033735;29;20295;-88
2023/08/12 20:59:55;;;;;;;8.20;7.07;;;21.60;94.40;;;;;;10036108;29;20237;-88
2023/08/12 21:10:28;;;;;;;11.27;7.53;;;21.50;94.70;;;;;;10011057;29;20717;-88
2023/08/12 21:15:32;;;;;;;19.52;15.23;;;21.50;94.40;;;;;;9996286;29;20639;-88
2023/08/12 21:20:35;;;;;;;16.67;14.90;;;21.50;94.60;;;;;;10005611;29;20702;-88
2023/08/12 21:25:37;;;;;;;10.63;7.97;;;21.50;94.70;;;;;;9993470;29;20299;-88
2023/08/12 21:30:40;;;;;;;12.48;7.28;;;21.50;95.10;;;;;;9993061;29;20288;-88
2023/08/12 21:35:42;;;;;;;7.28;5.70;;;21.50;94.90;;;;;;10005319;29;20305;-88
2023/08/12 21:40:45;;;;;;;7.65;6.95;;;21.50;95.00;;;;;;9990078;29;20234;-88
2023/08/12 21:45:48;;;;;;;8.65;7.63;;;21.50;94.80;;;;;;9987024;29;20242;-88
2023/08/12 21:50:50;;;;;;;9.82;7.50;;;21.50;95.20;;;;;;9991032;29;20286;-88
2023/08/12 21:55:53;;;;;;;7.03;6.30;;;21.50;95.50;;;;;;10003855;29;20238;-88
2023/08/12 22:00:57;;;;;;;7.32;6.60;;;21.40;95.60;;;;;;9992718;29;20238;-88
2023/08/12 22:05:59;;;;;;;5.88;4.90;;;21.40;96.10;;;;;;9995645;29;20690;-87
2023/08/12 22:11:02;;;;;;;12.85;4.88;;;21.30;95.60;;;;;;10000372;29;20681;-87
2023/08/12 22:16:05;;;;;;;7.05;4.68;;;21.30;96.10;;;;;;9999415;29;20226;-87
2023/08/12 22:21:09;;;;;;;5.97;5.38;;;21.30;96.40;;;;;;9985602;29;20635;-87
2023/08/12 22:26:11;;;;;;;6.60;5.63;;;21.20;96.70;;;;;;9982640;29;20283;-86
2023/08/12 22:31:14;;;;;;;9.80;6.13;;;21.20;96.70;;;;;;9985188;29;20242;-87
2023/08/12 22:36:16;;;;;;;6.65;6.05;;;21.20;96.50;;;;;;10006161;29;20644;-87
2023/08/12 22:41:19;;;;;;;7.75;5.88;;;21.10;96.80;;;;;;9999267;29;20728;-88
2023/08/12 22:46:22;;;;;;;10.82;5.13;;;21.10;96.60;;;;;;9999710;29;20273;-87
2023/08/12 22:51:24;;;;;;;6.55;4.28;;;21.00;96.10;;;;;;10003391;29;20226;-87
2023/08/12 22:56:27;;;;;;;6.70;4.13;;;21.00;96.30;;;;;;10009307;29;20665;-86
2023/08/12 23:01:29;;;;;;;8.07;5.93;;;21.00;96.80;;;;;;10011360;29;20267;-86
2023/08/12 23:06:32;;;;;;;5.95;4.97;;;21.00;97.20;;;;;;9995524;29;20297;-87
2023/08/12 23:11:35;;;;;;;6.70;5.60;;;21.00;97.10;;;;;;9998529;29;20680;-90
2023/08/12 23:16:37;;;;;;;7.55;5.90;;;21.00;96.50;;;;;;9992870;29;20234;-89
2023/08/12 23:21:40;;;;;;;7.25;6.55;;;20.90;99.90;;;;;;10006970;29;20238;-89
2023/08/12 23:26:43;;;;;;;7.35;5.97;;;20.80;99.20;;;;;;10007553;29;20323;-89
2023/08/12 23:31:45;;;;;;;7.65;6.13;;;20.80;99.90;;;;;;10003753;29;20234;-89
2023/08/12 23:36:48;;;;;;;8.48;6.32;;;20.60;99.90;;;;;;10007780;29;20661;-88
2023/08/12 23:41:50;;;;;;;7.70;6.95;;;20.50;99.90;;;;;;9995670;29;20287;-89
2023/08/12 23:46:53;;;;;;;10.70;5.85;;;20.50;99.90;;;;;;10004536;29;20769;-89
2023/08/12 23:51:56;;;;;;;8.65;6.40;;;20.50;99.90;;;;;;9996426;29;20246;-89
2023/08/12 23:57:00;;;;;;;7.38;6.60;;;20.40;99.90;;;;;;9995407;29;20246;-88
